Terminal Aerodrome Forecast
Issued by NWS

Home | Current Version | Previous Version | Text Only | Print | Product List | Glossary On
Versions: 1 2 3 4 5 6 7 8 9 10 11 12 13 14 15 16 17
000
FTUS46 KSGX 022320
TAFONT
TAF
KONT 022320Z 0300/0406 26009KT P6SM SCT120
     FM030400 VRB04KT P6SM SKC
      TEMPO 0311/0314 4SM HZ SCT005
     FM032100 26011KT P6SM SKC
     FM040400 VRB05KT P6SM SKC=

USA.gov is the U.S. government's official web portal to all federal, state and local government web resources and services.